Time;durP1;ratioP1;P1;durP2;ratioP2;P2;SDS_P1;SDS_P2;PMS_P1;PMS_P2;Temp;Humidity;BMP_temperature;BMP_pressure;BME280_temperature;BME280_humidity;BME280_pressure;Samples;Min_cycle;Max_cycle;Signal;HPM_P1;HPM_P2
2022/01/24 00:01:06;;;;;;;13.13;8.15;;;5.60;68.50;;;;;;5059251;28;20093;-71
2022/01/24 00:03:32;;;;;;;14.40;8.63;;;5.50;69.40;;;;;;5071415;28;20485;-71
2022/01/24 00:05:58;;;;;;;18.80;8.90;;;5.60;70.20;;;;;;5084020;28;20081;-69
2022/01/24 00:08:23;;;;;;;22.08;9.60;;;5.60;70.20;;;;;;5077092;28;20020;-69
2022/01/24 00:10:51;;;;;;;14.57;7.47;;;5.70;70.10;;;;;;5104540;27;20024;-69
2022/01/24 00:26:55;;;;;;;15.35;8.95;;;5.50;68.90;;;;;;5088784;28;20027;-69
2022/01/24 00:29:23;;;;;;;17.45;9.35;;;5.50;69.00;;;;;;5093755;28;20028;-70
2022/01/24 00:31:49;;;;;;;13.52;8.27;;;5.50;69.30;;;;;;5093837;28;20431;-71
2022/01/24 00:34:15;;;;;;;18.40;8.18;;;5.50;69.00;;;;;;5094293;28;20051;-70
2022/01/24 00:36:43;;;;;;;16.48;7.65;;;5.50;69.50;;;;;;5094040;28;20050;-70
2022/01/24 00:39:09;;;;;;;17.77;8.23;;;5.50;68.70;;;;;;5093820;28;20092;-70
2022/01/24 00:41:47;;;;;;;15.13;8.30;;;5.50;68.80;;;;;;5093184;28;20062;-70
2022/01/24 00:46:59;;;;;;;13.95;7.68;;;5.50;69.00;;;;;;5089553;28;20024;-71
2022/01/24 00:49:50;;;;;;;16.65;8.55;;;5.60;69.40;;;;;;5092948;28;20094;-68
2022/01/24 00:55:00;;;;;;;14.00;8.18;;;5.80;68.90;;;;;;5092251;28;20042;-69
2022/01/24 00:57:26;;;;;;;12.50;8.07;;;5.80;68.70;;;;;;5091581;28;20024;-70
2022/01/24 00:59:52;;;;;;;16.45;8.80;;;5.70;68.60;;;;;;5089483;28;20031;-72
2022/01/24 01:02:19;;;;;;;17.50;8.63;;;5.70;68.80;;;;;;5086719;28;20052;-70
2022/01/24 01:07:11;;;;;;;15.65;8.35;;;5.60;68.80;;;;;;5073133;28;20040;-70
2022/01/24 01:20:54;;;;;;;14.27;7.45;;;5.40;66.60;;;;;;5071767;28;20031;-70
2022/01/24 01:23:20;;;;;;;15.20;7.95;;;5.40;66.30;;;;;;5072058;28;20059;-69
2022/01/24 01:25:47;;;;;;;17.17;7.80;;;5.40;66.30;;;;;;5071227;28;20497;-70
2022/01/24 01:28:13;;;;;;;14.27;7.95;;;5.50;67.00;;;;;;5071481;28;20025;-70
2022/01/24 01:30:44;;;;;;;15.85;8.15;;;5.50;67.30;;;;;;5071323;28;20042;-70
2022/01/24 01:33:53;;;;;;;16.45;8.68;;;5.50;67.10;;;;;;5068265;28;20055;-69
2022/01/24 01:52:44;;;;;;;14.75;7.18;;;5.40;66.60;;;;;;5051203;28;20592;-69
2022/01/24 01:55:16;;;;;;;14.25;7.47;;;5.40;66.30;;;;;;5066498;28;20021;-69
2022/01/24 01:57:42;;;;;;;16.70;7.03;;;5.30;66.10;;;;;;5052873;28;20124;-69
2022/01/24 02:00:09;;;;;;;11.00;6.60;;;5.40;66.00;;;;;;5070097;28;20111;-69
2022/01/24 02:02:35;;;;;;;12.20;7.03;;;5.40;65.60;;;;;;5069330;28;20041;-70
2022/01/24 02:05:01;;;;;;;15.00;7.38;;;5.40;65.60;;;;;;5070951;28;20032;-70
2022/01/24 02:07:27;;;;;;;14.68;7.35;;;5.40;65.60;;;;;;5059438;28;20025;-69
2022/01/24 02:09:52;;;;;;;17.23;7.07;;;5.40;65.20;;;;;;5038763;28;20458;-68
2022/01/24 02:12:23;;;;;;;12.68;7.78;;;5.40;65.30;;;;;;5070310;28;20469;-69
2022/01/24 02:14:55;;;;;;;18.70;7.47;;;5.40;65.50;;;;;;5071063;28;20028;-69
2022/01/24 02:17:32;;;;;;;16.73;7.38;;;5.50;65.20;;;;;;5070640;28;20036;-69
2022/01/24 02:25:06;;;;;;;18.08;8.00;;;5.50;65.20;;;;;;5070466;28;20025;-69
2022/01/24 02:27:42;;;;;;;19.52;8.55;;;5.60;65.40;;;;;;5070439;28;20549;-69
2022/01/24 02:30:25;;;;;;;15.68;7.88;;;5.60;65.40;;;;;;5054327;28;20115;-69
2022/01/24 02:32:51;;;;;;;16.08;8.05;;;5.60;65.10;;;;;;5071685;28;20036;-68
2022/01/24 02:35:17;;;;;;;15.95;8.23;;;5.50;65.50;;;;;;5070759;28;20432;-68
2022/01/24 02:37:43;;;;;;;17.45;8.73;;;5.50;65.50;;;;;;5051280;28;20172;-70
2022/01/24 02:40:16;;;;;;;18.52;8.85;;;5.60;65.90;;;;;;5070646;28;20025;-69
2022/01/24 02:48:47;;;;;;;13.68;7.78;;;5.60;66.00;;;;;;4995063;28;20056;-69
2022/01/24 02:51:46;;;;;;;13.15;8.05;;;5.70;66.20;;;;;;4994754;28;20551;-70
2022/01/24 02:54:22;;;;;;;15.82;8.10;;;5.80;66.30;;;;;;5036242;28;20494;-69
2022/01/24 02:56:49;;;;;;;19.70;8.40;;;5.60;65.20;;;;;;5070294;28;20047;-69
2022/01/24 02:59:14;;;;;;;13.38;7.68;;;5.50;65.40;;;;;;5052992;28;20111;-68
2022/01/24 03:01:42;;;;;;;17.02;8.00;;;5.40;65.90;;;;;;5051571;28;20206;-69
2022/01/24 03:04:08;;;;;;;14.10;8.15;;;5.30;66.30;;;;;;5070477;28;20060;-69
2022/01/24 03:06:34;;;;;;;14.57;8.68;;;5.20;66.40;;;;;;5069530;28;20051;-68
2022/01/24 03:09:00;;;;;;;15.15;8.88;;;5.20;66.90;;;;;;5052989;28;20028;-69
2022/01/24 03:11:38;;;;;;;15.32;8.68;;;5.30;67.30;;;;;;5069168;28;20104;-69
2022/01/24 03:14:04;;;;;;;15.35;8.70;;;5.20;67.00;;;;;;5037636;28;20062;-71
2022/01/24 03:16:29;;;;;;;15.75;8.95;;;5.20;67.30;;;;;;5050981;28;20024;-70
2022/01/24 03:18:55;;;;;;;13.65;9.07;;;5.40;67.60;;;;;;5063549;28;20044;-73
2022/01/24 03:21:21;;;;;;;16.63;8.85;;;5.40;67.50;;;;;;5069734;28;20111;-69
2022/01/24 03:23:46;;;;;;;18.75;9.30;;;5.40;67.50;;;;;;5052387;28;20040;-70
2022/01/24 03:26:12;;;;;;;16.88;10.05;;;5.40;67.70;;;;;;5069859;28;20032;-70
2022/01/24 03:28:38;;;;;;;15.07;8.77;;;5.40;68.10;;;;;;5068313;28;20036;-71
2022/01/24 03:31:04;;;;;;;18.80;9.40;;;5.40;68.20;;;;;;5051223;28;20497;-70
2022/01/24 03:33:29;;;;;;;17.63;9.27;;;5.40;67.90;;;;;;5066952;28;20044;-70
2022/01/24 03:35:55;;;;;;;16.23;10.23;;;5.40;68.50;;;;;;5061846;28;20169;-70
2022/01/24 03:38:23;;;;;;;15.68;9.60;;;5.40;68.80;;;;;;5068397;28;20060;-67
2022/01/24 03:40:49;;;;;;;15.98;9.70;;;5.50;69.20;;;;;;5072979;28;20036;-69
2022/01/24 03:43:14;;;;;;;14.43;8.93;;;5.50;68.90;;;;;;5073692;28;20067;-69
2022/01/24 03:45:46;;;;;;;17.23;8.80;;;5.40;68.80;;;;;;5072753;28;20025;-69
2022/01/24 03:48:38;;;;;;;16.05;9.10;;;5.40;69.10;;;;;;5073448;28;20029;-68
2022/01/24 03:51:03;;;;;;;15.23;9.30;;;5.30;69.40;;;;;;5073482;28;20024;-70
2022/01/24 03:53:29;;;;;;;17.05;9.73;;;5.20;69.60;;;;;;5054764;28;20055;-70
2022/01/24 03:55:55;;;;;;;16.73;9.23;;;5.20;69.70;;;;;;5070883;28;20024;-70
2022/01/24 03:58:21;;;;;;;16.83;9.65;;;5.20;69.90;;;;;;5073312;28;20107;-67
2022/01/24 04:00:46;;;;;;;15.52;9.88;;;5.30;69.90;;;;;;5073440;28;20029;-69
2022/01/24 04:03:14;;;;;;;16.77;10.10;;;5.30;70.10;;;;;;5079248;28;20408;-69
2022/01/24 04:05:41;;;;;;;16.35;9.38;;;5.30;69.80;;;;;;5091871;28;20555;-69
2022/01/24 04:08:07;;;;;;;18.15;9.77;;;5.30;70.10;;;;;;5092798;28;20036;-69
2022/01/24 04:10:41;;;;;;;19.42;10.07;;;5.30;70.00;;;;;;5093141;28;20035;-69
2022/01/24 04:13:20;;;;;;;20.90;9.40;;;5.30;70.10;;;;;;5086971;28;20149;-70
2022/01/24 04:15:58;;;;;;;13.60;9.23;;;5.20;70.40;;;;;;5093409;28;20035;-71
2022/01/24 04:24:00;;;;;;;16.90;9.48;;;5.20;70.70;;;;;;5093479;28;20062;-70
2022/01/24 04:26:27;;;;;;;15.52;10.52;;;5.20;71.40;;;;;;5091960;28;20384;-68
2022/01/24 04:28:53;;;;;;;18.27;10.90;;;5.10;72.00;;;;;;5090995;28;20028;-69
2022/01/24 04:31:20;;;;;;;19.17;10.98;;;5.00;72.50;;;;;;5093144;28;20036;-69
2022/01/24 04:33:46;;;;;;;22.70;11.55;;;5.00;73.00;;;;;;5093296;28;20077;-69
2022/01/24 04:36:12;;;;;;;19.85;11.50;;;5.00;73.30;;;;;;5093181;28;20032;-69
2022/01/24 04:38:38;;;;;;;16.92;10.88;;;5.10;73.70;;;;;;5092469;28;20051;-69
2022/01/24 04:41:13;;;;;;;17.10;11.80;;;5.00;73.70;;;;;;5093312;28;20405;-69
2022/01/24 04:51:54;;;;;;;21.75;14.00;;;4.90;75.20;;;;;;5072504;28;20054;-67
2022/01/24 04:56:55;;;;;;;19.50;12.82;;;4.80;76.50;;;;;;5073283;28;20035;-72
2022/01/24 04:59:21;;;;;;;28.05;13.20;;;4.80;76.60;;;;;;5082155;28;20085;-69
2022/01/24 05:01:47;;;;;;;21.23;12.82;;;4.80;76.70;;;;;;5089958;28;20024;-69
2022/01/24 05:04:14;;;;;;;19.15;12.95;;;4.70;76.80;;;;;;5055497;28;20036;-69
2022/01/24 05:06:40;;;;;;;24.70;13.63;;;4.80;77.00;;;;;;5054154;28;20512;-69
2022/01/24 05:09:06;;;;;;;22.27;13.38;;;4.80;77.20;;;;;;5072798;28;20028;-71
2022/01/24 05:11:40;;;;;;;22.60;13.82;;;4.70;77.30;;;;;;5072129;28;20103;-69
2022/01/24 05:24:47;;;;;;;24.55;12.57;;;4.60;78.00;;;;;;5072519;28;20082;-69
2022/01/24 05:27:13;;;;;;;22.13;12.52;;;4.50;77.90;;;;;;5071592;28;20040;-71
2022/01/24 05:29:38;;;;;;;23.33;13.50;;;4.40;78.00;;;;;;5052881;28;20036;-69
2022/01/24 05:32:07;;;;;;;23.85;13.45;;;4.30;78.80;;;;;;5071043;28;20048;-70
2022/01/24 05:34:33;;;;;;;20.98;13.55;;;4.30;79.10;;;;;;5064860;28;20033;-70
2022/01/24 05:36:59;;;;;;;25.08;14.90;;;4.30;79.40;;;;;;5058386;28;20079;-70
2022/01/24 05:39:24;;;;;;;22.80;14.07;;;4.40;79.60;;;;;;5066439;28;20430;-67
2022/01/24 05:41:50;;;;;;;23.17;14.02;;;4.50;79.30;;;;;;5071948;28;20774;-71
2022/01/24 05:44:16;;;;;;;24.50;13.70;;;4.60;79.00;;;;;;5070823;28;20444;-70
2022/01/24 05:46:42;;;;;;;24.65;16.15;;;4.60;78.60;;;;;;5071210;28;20048;-69
2022/01/24 05:49:07;;;;;;;27.80;15.00;;;4.60;78.50;;;;;;5071596;28;20071;-68
2022/01/24 05:51:33;;;;;;;23.00;13.18;;;4.60;78.70;;;;;;5047995;28;20025;-69
2022/01/24 05:53:59;;;;;;;26.20;14.95;;;4.70;78.50;;;;;;5060586;28;20035;-68
2022/01/24 05:56:25;;;;;;;22.70;14.32;;;4.70;78.20;;;;;;5053132;28;20052;-68
2022/01/24 05:58:50;;;;;;;24.15;13.93;;;4.80;78.50;;;;;;5069775;28;20036;-69
2022/01/24 06:01:16;;;;;;;20.85;13.30;;;4.70;77.80;;;;;;5071600;28;20032;-69
2022/01/24 06:03:42;;;;;;;22.77;15.07;;;4.70;78.20;;;;;;5067818;28;20242;-69
2022/01/24 06:06:08;;;;;;;28.45;16.27;;;4.70;78.20;;;;;;5050093;28;20032;-64
2022/01/24 06:08:34;;;;;;;20.77;13.25;;;4.60;78.40;;;;;;5070919;28;20028;-62
2022/01/24 06:11:00;;;;;;;25.38;15.82;;;4.60;78.70;;;;;;5061717;28;20029;-61
2022/01/24 06:13:26;;;;;;;26.10;16.70;;;4.60;79.10;;;;;;5046248;28;20036;-62
2022/01/24 06:15:53;;;;;;;26.95;18.08;;;4.60;79.40;;;;;;5070789;28;20033;-77
2022/01/24 06:18:20;;;;;;;29.48;17.80;;;4.60;79.30;;;;;;5071060;28;20031;-68
2022/01/24 06:20:46;;;;;;;28.50;18.38;;;4.50;79.40;;;;;;5070243;28;20374;-69
2022/01/24 06:23:14;;;;;;;28.85;18.45;;;4.50;80.00;;;;;;5070152;28;20036;-68
2022/01/24 06:25:40;;;;;;;27.92;18.42;;;4.60;80.00;;;;;;5069210;28;20043;-68
2022/01/24 06:28:05;;;;;;;23.33;16.85;;;4.60;80.10;;;;;;5071217;28;20396;-69
2022/01/24 06:30:31;;;;;;;31.98;18.08;;;4.70;80.00;;;;;;5052288;28;20020;-68
2022/01/24 06:32:57;;;;;;;29.52;16.80;;;4.70;79.80;;;;;;5070070;28;20033;-68
2022/01/24 06:35:23;;;;;;;32.08;18.20;;;4.70;79.40;;;;;;5068160;28;20032;-65
2022/01/24 06:37:49;;;;;;;37.08;18.23;;;4.70;79.60;;;;;;5051011;28;20462;-68
2022/01/24 06:40:15;;;;;;;27.55;17.02;;;4.80;79.50;;;;;;5052420;28;20592;-68
2022/01/24 06:42:41;;;;;;;32.88;19.70;;;4.70;79.30;;;;;;5069726;28;20108;-68
2022/01/24 06:45:08;;;;;;;26.73;17.77;;;4.70;79.30;;;;;;5070569;28;20025;-68
2022/01/24 06:47:34;;;;;;;25.17;17.00;;;4.80;79.40;;;;;;5069761;28;20078;-69
2022/01/24 06:50:00;;;;;;;31.25;17.10;;;4.80;79.00;;;;;;5065390;28;20032;-69
2022/01/24 06:52:26;;;;;;;26.23;15.68;;;4.80;79.20;;;;;;5063485;28;20037;-69
2022/01/24 06:54:52;;;;;;;24.30;14.77;;;4.90;78.50;;;;;;5041128;28;20394;-69
2022/01/24 06:57:18;;;;;;;22.58;14.63;;;4.90;78.40;;;;;;5050219;28;20101;-68
2022/01/24 06:59:45;;;;;;;25.88;15.88;;;4.90;78.30;;;;;;5067977;28;20055;-68
2022/01/24 07:02:13;;;;;;;30.73;15.90;;;5.00;78.10;;;;;;5070044;28;20080;-65
2022/01/24 07:04:41;;;;;;;23.45;14.85;;;5.10;78.10;;;;;;5069949;28;20032;-65
2022/01/24 07:07:26;;;;;;;40.47;16.42;;;5.10;77.50;;;;;;5070598;28;20016;-66
2022/01/24 07:09:52;;;;;;;28.38;15.95;;;5.10;77.40;;;;;;5068875;28;20028;-65
2022/01/24 07:12:18;;;;;;;28.65;14.60;;;5.00;77.00;;;;;;5050864;28;20079;-60
2022/01/24 07:14:44;;;;;;;23.08;13.85;;;5.00;77.00;;;;;;5048984;28;20288;-65
2022/01/24 07:17:28;;;;;;;23.05;14.70;;;5.00;76.50;;;;;;5050515;28;20025;-65
2022/01/24 07:19:54;;;;;;;22.15;15.38;;;5.10;77.00;;;;;;5036777;28;20085;-65
2022/01/24 07:22:23;;;;;;;24.60;14.68;;;5.20;76.70;;;;;;5046056;28;20028;-65
2022/01/24 07:24:50;;;;;;;22.90;14.50;;;5.10;76.00;;;;;;5049974;28;20032;-64
2022/01/24 07:27:16;;;;;;;24.20;14.77;;;5.10;75.70;;;;;;5065758;28;20021;-65
2022/01/24 07:29:42;;;;;;;21.80;14.80;;;5.10;75.60;;;;;;5051828;28;20028;-65
2022/01/24 07:32:07;;;;;;;24.73;15.18;;;5.10;76.00;;;;;;5052859;28;20033;-65
2022/01/24 07:34:34;;;;;;;24.13;14.75;;;5.10;75.00;;;;;;5069968;28;20489;-65
2022/01/24 07:37:00;;;;;;;32.20;16.23;;;5.10;74.90;;;;;;5070856;28;20473;-66
2022/01/24 07:39:25;;;;;;;31.25;15.40;;;5.00;75.00;;;;;;5070799;28;20142;-64
2022/01/24 07:41:52;;;;;;;25.58;14.63;;;5.00;74.80;;;;;;5070820;28;20025;-65
2022/01/24 07:44:20;;;;;;;24.55;15.32;;;5.00;75.10;;;;;;5070884;28;20037;-65
2022/01/24 07:46:46;;;;;;;22.88;14.70;;;5.10;74.50;;;;;;5068550;28;20032;-66
2022/01/24 07:51:56;;;;;;;30.42;16.48;;;5.00;74.80;;;;;;5069190;28;20055;-67
2022/01/24 07:54:23;;;;;;;30.92;16.58;;;5.00;75.00;;;;;;5067334;28;20489;-67
2022/01/24 07:56:49;;;;;;;29.52;17.13;;;5.00;74.90;;;;;;5052142;28;20029;-67
2022/01/24 07:59:15;;;;;;;36.85;16.73;;;4.90;75.10;;;;;;5070564;28;20058;-67
2022/01/24 08:01:42;;;;;;;36.30;17.77;;;5.00;75.10;;;;;;5070006;28;20078;-67
2022/01/24 08:04:09;;;;;;;34.08;18.33;;;4.90;75.20;;;;;;5085001;28;20028;-68
2022/01/24 08:06:35;;;;;;;29.08;17.80;;;5.00;75.50;;;;;;5089350;28;20389;-66
2022/01/24 08:09:01;;;;;;;28.42;15.07;;;5.00;75.30;;;;;;5089642;28;20032;-66
2022/01/24 08:11:26;;;;;;;36.03;18.95;;;5.00;74.70;;;;;;5088249;28;20364;-68
2022/01/24 08:13:54;;;;;;;30.67;17.58;;;5.00;74.90;;;;;;5088881;28;20107;-67
2022/01/24 08:16:20;;;;;;;31.45;17.98;;;5.00;74.70;;;;;;5089846;28;20142;-67
2022/01/24 08:18:51;;;;;;;26.98;17.30;;;5.10;74.80;;;;;;5086597;28;20028;-67
2022/01/24 08:21:17;;;;;;;30.33;20.08;;;5.10;74.80;;;;;;5087813;28;20095;-68
2022/01/24 08:23:43;;;;;;;32.40;17.00;;;5.20;75.00;;;;;;5087375;28;20063;-68
2022/01/24 08:26:09;;;;;;;30.55;16.88;;;5.20;73.90;;;;;;5089359;28;20020;-67
2022/01/24 08:28:35;;;;;;;24.75;14.73;;;5.20;73.30;;;;;;5091380;28;20028;-67
2022/01/24 08:31:01;;;;;;;20.75;12.60;;;5.20;73.70;;;;;;5088129;28;20024;-66
2022/01/24 08:33:27;;;;;;;23.00;14.05;;;5.10;73.00;;;;;;5090187;28;20536;-66
2022/01/24 08:35:53;;;;;;;22.83;12.70;;;5.00;72.90;;;;;;5090308;28;20040;-66
2022/01/24 08:38:20;;;;;;;27.25;15.98;;;5.00;72.70;;;;;;5087307;28;20366;-66
2022/01/24 08:40:48;;;;;;;26.98;16.48;;;5.10;73.00;;;;;;5092973;28;20028;-67
2022/01/24 08:43:22;;;;;;;31.85;18.02;;;5.10;72.40;;;;;;5086216;28;20374;-64
2022/01/24 08:45:50;;;;;;;21.10;12.20;;;5.20;73.20;;;;;;5086454;28;20517;-69
2022/01/24 08:48:35;;;;;;;25.73;13.02;;;5.20;71.50;;;;;;5090892;28;20025;-69
2022/01/24 08:51:01;;;;;;;26.88;13.50;;;5.00;71.70;;;;;;5092087;28;20081;-65
2022/01/24 08:53:31;;;;;;;25.77;13.93;;;5.10;72.40;;;;;;5085306;28;20358;-62
2022/01/24 08:55:58;;;;;;;22.73;13.73;;;5.20;72.20;;;;;;5088920;28;20036;-63
2022/01/24 08:58:24;;;;;;;28.38;16.27;;;5.20;71.80;;;;;;5091798;28;20111;-64
2022/01/24 09:00:50;;;;;;;31.13;17.48;;;5.30;72.20;;;;;;5086257;28;20356;-63
2022/01/24 09:03:16;;;;;;;31.58;18.88;;;5.30;72.70;;;;;;5081332;28;20094;-63
2022/01/24 09:06:01;;;;;;;32.58;18.90;;;5.40;72.80;;;;;;5088682;28;20088;-64
2022/01/24 09:08:27;;;;;;;29.05;17.23;;;5.60;72.60;;;;;;5088802;28;20111;-65
2022/01/24 09:10:53;;;;;;;31.75;19.05;;;5.60;72.30;;;;;;5083333;28;20027;-65
2022/01/24 09:13:21;;;;;;;34.22;18.95;;;5.60;71.90;;;;;;5089790;28;20024;-65
2022/01/24 09:15:47;;;;;;;34.33;19.25;;;5.60;71.70;;;;;;5089100;28;20111;-63
2022/01/24 09:18:13;;;;;;;32.65;18.52;;;5.70;71.90;;;;;;5089983;28;20020;-64
2022/01/24 09:20:39;;;;;;;31.10;17.27;;;5.70;72.00;;;;;;5088069;28;20110;-64
2022/01/24 09:23:06;;;;;;;36.22;19.65;;;5.80;71.60;;;;;;5087574;28;20495;-65
2022/01/24 09:25:33;;;;;;;34.10;19.42;;;5.80;70.40;;;;;;5085385;28;20032;-64
2022/01/24 09:27:58;;;;;;;32.28;20.10;;;5.60;70.30;;;;;;5089267;28;20024;-63
2022/01/24 09:30:25;;;;;;;34.53;20.92;;;5.60;71.40;;;;;;5085487;28;20085;-64
2022/01/24 09:32:52;;;;;;;27.50;17.70;;;5.60;71.40;;;;;;5091804;28;20052;-63
2022/01/24 09:35:20;;;;;;;26.50;16.95;;;5.60;71.40;;;;;;5091340;28;20503;-63
2022/01/24 09:37:49;;;;;;;32.63;18.55;;;5.60;71.30;;;;;;5089190;28;20536;-63
2022/01/24 09:40:16;;;;;;;27.58;16.38;;;5.60;71.20;;;;;;5089452;28;20020;-62
2022/01/24 09:42:44;;;;;;;28.65;18.33;;;5.60;71.70;;;;;;5087098;28;20051;-65
2022/01/24 09:45:11;;;;;;;26.80;16.95;;;5.60;71.70;;;;;;5087277;28;20028;-64
2022/01/24 09:47:37;;;;;;;27.02;16.45;;;5.60;71.70;;;;;;5086946;28;20028;-62
2022/01/24 09:50:08;;;;;;;28.65;16.58;;;5.70;71.10;;;;;;5087751;28;20032;-63
2022/01/24 09:52:35;;;;;;;31.92;16.77;;;5.70;70.70;;;;;;5086194;28;20032;-65
2022/01/24 09:55:01;;;;;;;29.88;17.27;;;5.70;69.70;;;;;;5088438;28;20035;-65
2022/01/24 09:57:29;;;;;;;30.17;19.17;;;5.70;69.70;;;;;;5089210;28;20023;-64
2022/01/24 09:59:56;;;;;;;37.88;21.75;;;5.80;69.50;;;;;;5087792;28;20034;-65
2022/01/24 10:02:25;;;;;;;35.47;20.55;;;6.00;69.10;;;;;;5082602;28;20048;-63
2022/01/24 10:04:51;;;;;;;38.08;23.77;;;5.90;68.50;;;;;;5067479;28;20425;-66
2022/01/24 10:07:17;;;;;;;31.45;19.83;;;5.90;68.70;;;;;;5065659;28;20041;-63
2022/01/24 10:09:43;;;;;;;34.03;21.48;;;5.80;69.50;;;;;;5064452;28;20114;-64
2022/01/24 10:17:40;;;;;;;36.42;20.45;;;6.10;68.60;;;;;;5067910;28;19915;-64
2022/01/24 10:20:40;;;;;;;33.60;21.45;;;6.20;68.60;;;;;;5068480;28;20036;-64
2022/01/24 10:23:26;;;;;;;35.58;22.88;;;6.30;68.70;;;;;;5049163;28;20044;-65
2022/01/24 10:26:04;;;;;;;36.50;23.42;;;6.40;68.30;;;;;;5063521;28;20091;-64
2022/01/24 10:28:39;;;;;;;41.97;25.13;;;6.40;67.60;;;;;;5050676;28;20032;-64
2022/01/24 10:31:23;;;;;;;39.83;24.50;;;6.40;67.00;;;;;;5068616;28;20023;-64
2022/01/24 10:34:34;;;;;;;38.65;23.88;;;6.40;67.10;;;;;;5049377;28;20028;-64
2022/01/24 10:37:00;;;;;;;36.60;22.58;;;6.50;68.30;;;;;;5060329;28;20111;-67
2022/01/24 10:44:54;;;;;;;40.47;23.10;;;6.40;67.00;;;;;;5060575;28;20040;-67
2022/01/24 10:47:30;;;;;;;37.95;24.23;;;6.40;67.20;;;;;;5065601;28;20462;-65
2022/01/24 10:49:59;;;;;;;42.00;24.58;;;6.40;67.10;;;;;;5040952;28;20047;-65
2022/01/24 10:52:28;;;;;;;44.58;26.67;;;6.50;67.30;;;;;;5066900;28;20028;-63
2022/01/24 10:55:18;;;;;;;39.90;24.33;;;6.60;67.30;;;;;;5065086;28;20111;-65
2022/01/24 10:57:50;;;;;;;50.80;26.58;;;6.50;65.90;;;;;;5063637;28;20095;-65
2022/01/24 11:00:29;;;;;;;42.63;25.95;;;6.50;66.80;;;;;;5068656;28;20077;-66
2022/01/24 11:02:59;;;;;;;44.30;25.23;;;6.40;66.50;;;;;;5057822;28;20048;-62
2022/01/24 11:05:33;;;;;;;44.92;25.20;;;6.40;66.40;;;;;;5087847;28;20031;-65
2022/01/24 11:08:00;;;;;;;;;;;6.40;66.80;;;;;;5085998;28;20104;-65
2022/01/24 11:10:28;;;;;;;43.75;23.90;;;6.40;66.40;;;;;;5089638;28;19912;-64
2022/01/24 11:12:55;;;;;;;44.58;28.08;;;6.40;66.40;;;;;;5087651;28;20256;-66
2022/01/24 11:15:22;;;;;;;43.33;25.55;;;6.30;66.00;;;;;;5089023;28;20032;-64
2022/01/24 11:17:48;;;;;;;38.92;24.95;;;6.40;66.40;;;;;;5085565;28;20481;-66
2022/01/24 11:20:17;;;;;;;44.50;27.40;;;6.40;65.80;;;;;;5067644;28;20078;-65
2022/01/24 11:22:58;;;;;;;47.33;29.13;;;6.30;65.40;;;;;;5089969;28;20062;-66
2022/01/24 11:25:26;;;;;;;41.30;25.35;;;6.20;65.90;;;;;;5086482;28;20028;-64
2022/01/24 11:27:52;;;;;;;47.08;27.05;;;6.10;66.50;;;;;;5084557;28;20408;-64
2022/01/24 11:30:38;;;;;;;45.00;26.25;;;6.20;67.00;;;;;;5088202;28;20028;-67
2022/01/24 11:33:12;;;;;;;48.55;27.88;;;6.20;66.10;;;;;;5086486;28;20104;-64
2022/01/24 11:35:51;;;;;;;51.88;29.40;;;6.10;65.70;;;;;;5087057;28;20031;-63
2022/01/24 11:38:35;;;;;;;46.60;27.58;;;6.00;66.30;;;;;;5089853;28;20028;-64
2022/01/24 11:41:37;;;;;;;42.30;27.02;;;6.00;66.10;;;;;;5087536;28;20020;-65
2022/01/24 11:44:11;;;;;;;42.75;25.83;;;5.90;66.10;;;;;;5068031;28;20119;-62
2022/01/24 11:46:48;;;;;;;42.92;26.05;;;5.90;66.20;;;;;;5086647;28;20028;-64
2022/01/24 11:49:25;;;;;;;41.75;24.95;;;5.90;65.80;;;;;;5081510;28;20457;-65
2022/01/24 11:52:04;;;;;;;41.72;26.25;;;5.80;66.30;;;;;;5086959;28;20122;-63
2022/01/24 11:57:16;;;;;;;41.70;24.50;;;5.80;66.40;;;;;;5089975;28;20040;-66
2022/01/24 12:00:05;;;;;;;38.70;23.13;;;5.90;65.70;;;;;;5089205;28;20036;-65
2022/01/24 12:02:52;;;;;;;33.97;22.50;;;5.80;65.30;;;;;;5083310;28;20250;-72
2022/01/24 12:05:19;;;;;;;42.38;24.05;;;5.80;65.60;;;;;;5077080;28;20040;-73
2022/01/24 12:07:53;;;;;;;37.78;23.30;;;5.70;65.70;;;;;;5085610;28;20047;-74
2022/01/24 12:10:26;;;;;;;38.70;23.63;;;5.80;66.20;;;;;;5091614;28;20031;-71
2022/01/24 12:12:55;;;;;;;39.58;23.90;;;5.80;65.40;;;;;;5092051;28;20066;-64
2022/01/24 12:15:39;;;;;;;39.50;22.02;;;5.80;65.60;;;;;;5089321;28;20385;-73
2022/01/24 12:18:09;;;;;;;36.75;22.70;;;5.80;65.50;;;;;;5091723;28;20024;-74
2022/01/24 12:20:35;;;;;;;35.20;23.05;;;5.80;65.70;;;;;;5090867;28;20024;-70
2022/01/24 12:23:25;;;;;;;40.95;24.63;;;5.90;65.80;;;;;;5091039;28;20109;-72
2022/01/24 12:26:05;;;;;;;39.45;21.55;;;5.80;65.10;;;;;;5091929;28;20028;-73
2022/01/24 12:29:12;;;;;;;37.42;22.77;;;5.90;65.50;;;;;;5087042;28;20077;-69
2022/01/24 12:31:47;;;;;;;36.70;23.10;;;5.90;65.30;;;;;;5089698;28;20040;-75
2022/01/24 12:34:16;;;;;;;40.63;22.00;;;5.80;64.80;;;;;;5085656;28;20028;-69
2022/01/24 12:36:52;;;;;;;41.30;21.83;;;5.70;64.80;;;;;;5091239;28;20020;-69
2022/01/24 12:39:48;;;;;;;33.45;22.63;;;5.70;65.30;;;;;;5087711;28;20055;-76
2022/01/24 12:42:27;;;;;;;39.65;22.45;;;5.70;65.80;;;;;;5089915;28;20035;-70
2022/01/24 12:47:24;;;;;;;42.42;24.73;;;5.70;65.90;;;;;;5093360;28;20091;-65
2022/01/24 12:49:51;;;;;;;37.25;22.65;;;5.70;66.30;;;;;;5089090;28;20487;-73
2022/01/24 12:52:25;;;;;;;42.83;24.55;;;5.70;66.40;;;;;;5089121;28;20038;-73
2022/01/24 12:54:55;;;;;;;37.08;24.30;;;5.70;66.70;;;;;;5098386;28;20036;-74
2022/01/24 12:57:29;;;;;;;42.55;23.92;;;5.70;66.90;;;;;;5088635;28;20032;-74
2022/01/24 12:59:57;;;;;;;;;;;5.70;66.90;;;;;;5085914;28;20039;-69
2022/01/24 13:02:25;;;;;;;50.42;26.80;;;5.70;67.00;;;;;;5090374;28;20237;-63
2022/01/24 13:04:52;;;;;;;39.00;24.35;;;5.70;67.20;;;;;;5085961;28;20038;-67
2022/01/24 13:07:24;;;;;;;39.25;25.80;;;5.70;67.10;;;;;;5087555;28;20081;-66
2022/01/24 13:09:51;;;;;;;44.58;26.77;;;5.80;67.50;;;;;;5083853;28;20408;-67
2022/01/24 13:12:21;;;;;;;42.83;26.02;;;5.70;67.80;;;;;;5069703;28;20393;-64
2022/01/24 13:14:53;;;;;;;46.25;26.52;;;5.70;68.10;;;;;;5088633;28;20345;-67
2022/01/24 13:23:12;;;;;;;44.10;29.00;;;5.60;68.40;;;;;;5039616;28;20033;-72
2022/01/24 13:25:40;;;;;;;46.30;29.65;;;5.60;68.90;;;;;;5071666;28;20036;-65
2022/01/24 13:28:15;;;;;;;47.90;28.27;;;5.70;68.80;;;;;;5087948;28;20052;-64
2022/01/24 13:30:57;;;;;;;48.67;27.75;;;5.60;69.00;;;;;;5087235;28;20024;-68
2022/01/24 13:33:25;;;;;;;45.00;28.42;;;5.70;69.30;;;;;;5090562;28;20031;-65
2022/01/24 13:36:07;;;;;;;47.17;29.23;;;5.70;69.70;;;;;;5082772;28;20070;-66
2022/01/24 13:38:39;;;;;;;47.10;29.83;;;5.60;69.70;;;;;;5081838;28;20067;-66
2022/01/24 13:41:13;;;;;;;45.00;29.38;;;5.70;69.90;;;;;;5057107;28;20064;-69
2022/01/24 13:43:45;;;;;;;48.95;31.45;;;5.60;69.90;;;;;;5080549;28;20381;-66
2022/01/24 13:46:14;;;;;;;49.03;29.58;;;5.70;70.00;;;;;;5090727;28;20047;-65
2022/01/24 13:48:47;;;;;;;47.53;28.30;;;5.60;70.10;;;;;;5084299;28;20123;-68
2022/01/24 13:51:15;;;;;;;52.13;29.42;;;5.60;70.10;;;;;;5087827;28;20028;-70
2022/01/24 13:53:45;;;;;;;47.92;28.00;;;5.50;69.80;;;;;;5086445;28;20099;-66
2022/01/24 13:56:16;;;;;;;46.90;29.27;;;5.50;70.20;;;;;;5075568;28;20512;-72
2022/01/24 13:58:41;;;;;;;48.33;30.58;;;5.40;70.20;;;;;;5076532;28;20021;-69
2022/01/24 14:01:07;;;;;;;44.83;27.95;;;5.40;70.60;;;;;;5079238;28;20454;-67
2022/01/24 14:03:33;;;;;;;54.38;34.67;;;5.40;70.60;;;;;;5066423;28;20512;-65
2022/01/24 14:06:17;;;;;;;47.67;29.83;;;5.40;70.90;;;;;;5061615;28;20021;-70
2022/01/24 14:08:43;;;;;;;46.25;30.17;;;5.40;71.10;;;;;;5057276;28;20029;-71
2022/01/24 14:11:14;;;;;;;49.70;30.88;;;5.40;71.20;;;;;;5063565;28;20175;-71
2022/01/24 14:13:46;;;;;;;57.67;31.77;;;5.40;71.20;;;;;;5044513;28;20035;-65
2022/01/24 14:16:32;;;;;;;59.72;38.63;;;5.50;71.40;;;;;;5063425;28;20035;-72
2022/01/24 14:19:03;;;;;;;50.83;32.58;;;5.50;71.20;;;;;;5067087;28;20060;-74
2022/01/24 14:21:28;;;;;;;46.33;29.48;;;5.50;71.30;;;;;;5055035;28;20386;-65
2022/01/24 14:24:12;;;;;;;45.10;29.70;;;5.40;71.00;;;;;;5068898;28;20048;-71
2022/01/24 14:26:46;;;;;;;51.17;31.40;;;5.40;71.30;;;;;;5063703;28;20493;-69
2022/01/24 14:29:15;;;;;;;51.75;31.50;;;5.30;71.60;;;;;;5032053;28;20136;-74
2022/01/24 14:31:44;;;;;;;50.10;33.15;;;5.30;71.70;;;;;;5060292;28;20102;-72
2022/01/24 14:34:17;;;;;;;49.92;32.00;;;5.30;71.90;;;;;;5048157;28;20085;-73
2022/01/24 14:36:55;;;;;;;56.95;35.60;;;5.20;71.90;;;;;;5050014;28;20028;-74
2022/01/24 14:39:22;;;;;;;63.20;38.65;;;5.10;72.50;;;;;;5067067;28;20064;-72
2022/01/24 14:41:49;;;;;;;57.17;33.75;;;5.10;72.70;;;;;;5069724;28;20363;-75
2022/01/24 14:47:04;;;;;;;54.22;31.98;;;5.20;72.50;;;;;;5061872;28;20408;-73
2022/01/24 14:49:33;;;;;;;55.65;32.30;;;5.10;72.20;;;;;;5066600;28;20059;-69